createdAt,value
2022-10-05T00:01:19.467Z,3.30
2022-10-05T00:03:30.184Z,3.00
2022-10-05T00:05:39.016Z,3.20
2022-10-05T00:07:48.058Z,3.00
2022-10-05T00:09:59.513Z,2.80
2022-10-05T00:12:15.228Z,2.63
2022-10-05T00:14:25.978Z,3.00
2022-10-05T00:16:34.821Z,3.13
2022-10-05T00:18:45.087Z,2.90
2022-10-05T00:20:53.874Z,3.10
2022-10-05T00:23:04.740Z,3.07
2022-10-05T00:25:14.753Z,3.00
2022-10-05T00:27:25.620Z,2.87
2022-10-05T00:29:37.659Z,3.00
2022-10-05T00:31:48.957Z,3.13
2022-10-05T00:33:57.843Z,2.90
2022-10-05T00:36:08.621Z,3.13
2022-10-05T00:38:17.672Z,3.20
2022-10-05T00:40:33.311Z,3.30
2022-10-05T00:42:50.875Z,2.90
2022-10-05T00:45:03.328Z,3.07
2022-10-05T00:47:17.975Z,3.07
2022-10-05T00:49:32.103Z,3.00
2022-10-05T00:51:41.789Z,2.70
2022-10-05T00:53:53.524Z,2.80
2022-10-05T00:56:05.745Z,2.80
2022-10-05T00:58:24.589Z,3.10
2022-10-05T01:00:35.231Z,2.73
2022-10-05T01:02:53.417Z,2.30
2022-10-05T01:05:05.182Z,2.60
2022-10-05T01:07:17.904Z,3.20
2022-10-05T01:09:31.886Z,2.17
2022-10-05T01:11:45.418Z,3.10
2022-10-05T01:14:01.896Z,2.53
2022-10-05T01:16:12.818Z,2.70
2022-10-05T01:18:26.972Z,2.67
2022-10-05T01:20:43.000Z,2.93
2022-10-05T01:23:09.603Z,2.80
2022-10-05T01:25:23.685Z,2.73
2022-10-05T01:27:47.461Z,2.77
2022-10-05T01:30:01.744Z,2.80
2022-10-05T01:32:13.750Z,2.70
2022-10-05T01:34:25.662Z,3.43
2022-10-05T01:36:36.786Z,2.93
2022-10-05T01:38:50.953Z,3.03
2022-10-05T01:41:06.056Z,2.53
2022-10-05T01:43:20.712Z,3.00
2022-10-05T01:45:34.969Z,2.70
2022-10-05T01:47:46.214Z,3.03
2022-10-05T01:50:00.218Z,3.23
2022-10-05T01:52:17.337Z,3.07
2022-10-05T01:54:30.399Z,3.13
2022-10-05T01:56:41.196Z,3.20
2022-10-05T01:58:56.434Z,3.13
2022-10-05T02:01:09.456Z,3.13
2022-10-05T02:03:20.780Z,2.87
2022-10-05T02:05:34.072Z,3.10
2022-10-05T02:07:45.939Z,2.67
2022-10-05T02:09:57.208Z,2.77
2022-10-05T02:12:09.639Z,3.40
2022-10-05T02:14:20.287Z,3.00
2022-10-05T02:16:33.649Z,3.33
2022-10-05T02:18:46.827Z,3.23
2022-10-05T02:20:57.680Z,3.10
2022-10-05T02:23:10.206Z,3.30
2022-10-05T02:25:21.328Z,3.57
2022-10-05T02:27:32.344Z,3.30
2022-10-05T02:29:45.305Z,2.93
2022-10-05T02:31:57.604Z,3.30
2022-10-05T02:34:22.717Z,3.57
2022-10-05T02:36:34.504Z,3.30
2022-10-05T02:38:49.729Z,3.30
2022-10-05T02:41:03.983Z,3.03
2022-10-05T02:43:19.619Z,3.00
2022-10-05T02:45:32.234Z,3.10
2022-10-05T02:47:43.932Z,3.60
2022-10-05T02:49:54.627Z,3.10
2022-10-05T02:52:09.039Z,3.33
2022-10-05T02:54:23.993Z,3.90
2022-10-05T02:56:39.028Z,3.40
2022-10-05T02:58:52.696Z,3.53
2022-10-05T03:01:04.762Z,4.00
2022-10-05T03:03:18.530Z,3.57
2022-10-05T03:05:28.150Z,3.40
2022-10-05T03:07:39.932Z,3.53
2022-10-05T03:09:51.765Z,3.80
2022-10-05T03:12:05.089Z,4.10
2022-10-05T03:14:18.499Z,3.63
2022-10-05T03:16:35.872Z,3.67
2022-10-05T03:18:54.112Z,3.80
2022-10-05T03:21:08.395Z,3.83
2022-10-05T03:23:24.909Z,3.67
2022-10-05T03:25:47.668Z,3.87
2022-10-05T03:27:59.936Z,3.50
2022-10-05T03:30:13.847Z,4.10
2022-10-05T03:32:27.469Z,4.30
2022-10-05T03:34:41.257Z,3.43
2022-10-05T03:36:51.852Z,3.90
2022-10-05T03:39:03.854Z,3.57
2022-10-05T03:41:18.202Z,3.80
2022-10-05T03:43:33.809Z,3.20
2022-10-05T03:45:49.177Z,3.70
2022-10-05T03:48:03.476Z,4.17
2022-10-05T03:50:22.317Z,3.70
2022-10-05T03:52:34.251Z,4.07
2022-10-05T03:54:44.636Z,4.17
2022-10-05T03:56:55.895Z,3.70
2022-10-05T03:59:07.516Z,3.73
2022-10-05T04:01:18.600Z,3.93
2022-10-05T04:03:32.793Z,3.90
2022-10-05T04:05:45.319Z,3.30
2022-10-05T04:07:57.222Z,4.00
2022-10-05T04:10:08.078Z,3.80
2022-10-05T04:12:21.751Z,4.30
2022-10-05T04:14:34.361Z,3.97
2022-10-05T04:16:45.907Z,4.17
2022-10-05T04:19:00.302Z,4.00
2022-10-05T04:21:12.851Z,3.80
2022-10-05T04:23:23.632Z,3.83
2022-10-05T04:25:34.994Z,3.80
2022-10-05T04:27:45.823Z,4.03
2022-10-05T04:29:57.855Z,4.20
2022-10-05T04:32:14.333Z,3.37
2022-10-05T04:34:32.623Z,3.60
2022-10-05T04:36:47.217Z,3.80
2022-10-05T04:39:05.443Z,3.40
2022-10-05T04:41:22.030Z,3.70
2022-10-05T04:43:35.909Z,3.80
2022-10-05T04:45:54.338Z,3.50
2022-10-05T04:48:13.834Z,4.10
2022-10-05T04:50:28.344Z,3.43
2022-10-05T04:52:41.961Z,3.70
2022-10-05T04:54:55.393Z,3.40
2022-10-05T04:57:05.459Z,3.67
2022-10-05T04:59:35.976Z,4.10
2022-10-05T05:01:50.076Z,3.83
2022-10-05T05:04:14.573Z,3.80
2022-10-05T05:06:29.581Z,3.40
2022-10-05T05:08:43.969Z,3.90
2022-10-05T05:10:56.124Z,3.63
2022-10-05T05:13:13.155Z,3.80
2022-10-05T05:15:39.406Z,3.30
2022-10-05T05:17:57.600Z,3.63
2022-10-05T05:20:14.180Z,3.50
2022-10-05T05:22:27.393Z,4.07
2022-10-05T05:24:40.824Z,3.90
2022-10-05T05:27:07.712Z,3.70
2022-10-05T05:29:20.088Z,3.53
2022-10-05T05:31:32.191Z,3.13
2022-10-05T05:33:48.974Z,3.40
2022-10-05T05:36:13.480Z,3.30
2022-10-05T05:38:27.312Z,3.37
2022-10-05T05:40:44.811Z,3.83
2022-10-05T05:42:57.321Z,4.23
2022-10-05T05:45:09.957Z,4.00
2022-10-05T05:47:21.612Z,3.57
2022-10-05T05:49:34.572Z,3.40
2022-10-05T05:51:46.626Z,3.80
2022-10-05T05:53:57.388Z,3.47
2022-10-05T05:56:10.563Z,3.60
2022-10-05T05:58:22.742Z,3.70
2022-10-05T06:00:33.768Z,3.90
2022-10-05T06:02:44.131Z,3.70
2022-10-05T06:04:54.961Z,3.60
2022-10-05T06:07:05.457Z,3.80
2022-10-05T06:09:18.543Z,3.70
2022-10-05T06:11:30.525Z,3.47
2022-10-05T06:13:41.053Z,3.67
2022-10-05T06:15:53.324Z,4.17
2022-10-05T06:18:05.157Z,3.63
2022-10-05T06:20:18.990Z,3.50
2022-10-05T06:22:31.661Z,3.43
2022-10-05T06:24:43.156Z,3.33
2022-10-05T06:27:04.932Z,3.67
2022-10-05T06:29:16.983Z,4.00
2022-10-05T06:31:33.931Z,4.13
2022-10-05T06:33:49.222Z,4.27
2022-10-05T06:36:05.243Z,3.60
2022-10-05T06:38:21.770Z,3.70
2022-10-05T06:40:37.636Z,3.83
2022-10-05T06:42:51.778Z,4.13
2022-10-05T06:45:04.082Z,4.10
2022-10-05T06:47:19.097Z,4.07
2022-10-05T06:49:29.679Z,3.67
2022-10-05T06:51:42.696Z,3.90
2022-10-05T06:54:00.987Z,3.80
2022-10-05T06:56:11.860Z,4.10
2022-10-05T06:58:28.617Z,4.43
2022-10-05T07:00:41.989Z,3.77
2022-10-05T07:02:53.958Z,3.97
2022-10-05T07:05:14.279Z,4.23
2022-10-05T07:07:26.323Z,4.07
2022-10-05T07:09:40.115Z,4.20
2022-10-05T07:12:03.677Z,4.00
2022-10-05T07:14:22.516Z,4.50
2022-10-05T07:16:39.213Z,4.70
2022-10-05T07:18:57.587Z,4.10
2022-10-05T07:21:10.759Z,4.43
2022-10-05T07:23:26.678Z,4.03
2022-10-05T07:25:38.859Z,3.97
2022-10-05T07:27:51.831Z,3.93
2022-10-05T07:30:03.532Z,4.70
2022-10-05T07:32:18.057Z,4.13
2022-10-05T07:34:30.865Z,4.13
2022-10-05T07:37:01.814Z,4.93
2022-10-05T07:39:12.705Z,4.50
2022-10-05T07:41:24.542Z,4.67
2022-10-05T07:44:00.537Z,4.40
2022-10-05T07:46:10.919Z,4.60
2022-10-05T07:48:22.524Z,4.80
2022-10-05T07:50:33.686Z,4.57
2022-10-05T07:52:45.168Z,4.30
2022-10-05T07:54:59.643Z,4.50
2022-10-05T07:57:12.669Z,5.03
2022-10-05T07:59:26.573Z,5.00
2022-10-05T08:01:37.445Z,4.60
2022-10-05T08:03:49.885Z,4.63
2022-10-05T08:06:00.571Z,4.30
2022-10-05T08:08:16.784Z,5.17
2022-10-05T08:10:32.328Z,4.60
2022-10-05T08:12:46.776Z,4.80
2022-10-05T08:14:57.737Z,4.70
2022-10-05T08:17:13.796Z,4.70
2022-10-05T08:19:26.101Z,5.13
2022-10-05T08:21:37.711Z,4.50
2022-10-05T08:23:49.749Z,4.40
2022-10-05T08:26:07.408Z,4.97
2022-10-05T08:28:19.856Z,4.43
2022-10-05T08:30:28.961Z,4.70
2022-10-05T08:32:41.235Z,4.23
2022-10-05T08:34:52.122Z,4.37
2022-10-05T08:37:04.498Z,4.67
2022-10-05T08:39:16.640Z,4.53
2022-10-05T08:41:43.951Z,4.40
2022-10-05T08:44:07.617Z,4.43
2022-10-05T08:46:27.482Z,4.30
2022-10-05T08:48:56.470Z,4.00
2022-10-05T08:51:24.102Z,3.57
2022-10-05T08:53:47.201Z,3.60
2022-10-05T08:56:04.241Z,3.87
2022-10-05T08:58:31.480Z,3.67
2022-10-05T09:00:47.200Z,3.60
2022-10-05T09:03:16.615Z,3.57
2022-10-05T09:05:40.988Z,3.23
2022-10-05T09:08:04.377Z,3.93
2022-10-05T09:10:31.818Z,3.47
2022-10-05T09:12:48.661Z,3.30
2022-10-05T09:15:24.765Z,3.60
2022-10-05T09:17:43.665Z,3.40
2022-10-05T09:20:12.370Z,3.87
2022-10-05T09:22:31.613Z,3.50
2022-10-05T09:24:50.856Z,3.47
2022-10-05T09:27:02.498Z,3.47
2022-10-05T09:29:22.457Z,3.40
2022-10-05T09:31:42.098Z,3.57
2022-10-05T09:34:01.799Z,3.10
2022-10-05T09:36:19.944Z,3.07
2022-10-05T09:38:33.648Z,3.13
2022-10-05T09:41:00.729Z,3.40
2022-10-05T09:43:21.292Z,2.93
2022-10-05T09:45:44.058Z,2.90
2022-10-05T09:47:59.887Z,2.87
2022-10-05T09:50:20.743Z,3.17
2022-10-05T09:52:47.786Z,2.93
2022-10-05T09:55:15.266Z,2.70
2022-10-05T09:59:49.764Z,2.83
2022-10-05T10:02:17.307Z,2.83
2022-10-05T10:04:37.824Z,3.13
2022-10-05T10:07:05.145Z,2.67
2022-10-05T10:09:22.267Z,2.80
2022-10-05T10:11:42.983Z,2.90
2022-10-05T10:14:16.228Z,2.93
2022-10-05T10:16:34.152Z,3.00
2022-10-05T10:18:48.967Z,3.07
2022-10-05T10:21:04.894Z,3.33
2022-10-05T10:23:22.999Z,2.57
2022-10-05T10:25:40.373Z,2.60
2022-10-05T10:27:56.204Z,2.67
2022-10-05T10:30:19.939Z,2.70
2022-10-05T10:32:43.373Z,2.50
2022-10-05T10:35:08.249Z,2.77
2022-10-05T10:37:34.584Z,2.63
2022-10-05T10:39:50.866Z,2.53
2022-10-05T10:42:06.849Z,2.50
2022-10-05T10:44:23.054Z,2.60
2022-10-05T10:46:37.064Z,2.47
2022-10-05T10:48:51.535Z,2.90
2022-10-05T10:51:13.845Z,2.50
2022-10-05T10:53:34.863Z,2.80
2022-10-05T10:55:49.064Z,2.13
2022-10-05T10:58:20.514Z,2.77
2022-10-05T11:00:43.671Z,2.27
2022-10-05T11:03:13.550Z,2.80
2022-10-05T11:05:29.911Z,2.50
2022-10-05T11:07:57.172Z,2.00
2022-10-05T11:10:16.410Z,2.80
2022-10-05T11:12:44.471Z,2.03
2022-10-05T11:15:01.744Z,2.10
2022-10-05T11:17:33.907Z,2.27
2022-10-05T11:20:09.274Z,2.17
2022-10-05T11:22:36.067Z,1.97
2022-10-05T11:24:50.370Z,2.20
2022-10-05T11:27:14.157Z,2.00
2022-10-05T11:29:37.944Z,2.00
2022-10-05T11:32:07.331Z,2.10
2022-10-05T11:34:34.425Z,2.37
2022-10-05T11:36:53.926Z,1.93
2022-10-05T11:39:26.600Z,2.00
2022-10-05T11:41:44.827Z,2.30
2022-10-05T11:44:07.877Z,2.07
2022-10-05T11:46:20.426Z,2.03
2022-10-05T11:48:40.841Z,2.10
2022-10-05T11:50:54.438Z,2.03
2022-10-05T11:53:08.199Z,1.97
2022-10-05T11:55:19.700Z,2.20
2022-10-05T11:57:33.330Z,2.03
2022-10-05T11:59:44.777Z,2.10
2022-10-05T12:01:57.209Z,2.20
2022-10-05T12:04:12.922Z,2.20
2022-10-05T12:06:25.888Z,2.00
2022-10-05T12:08:40.283Z,2.30
2022-10-05T12:10:54.217Z,2.20
2022-10-05T12:13:20.812Z,2.00
2022-10-05T12:15:31.934Z,1.90
2022-10-05T12:17:44.448Z,1.87
2022-10-05T12:19:55.658Z,2.00
2022-10-05T12:22:11.112Z,1.90
2022-10-05T12:24:26.806Z,2.63
2022-10-05T12:26:38.273Z,2.00
2022-10-05T12:28:48.954Z,2.13
2022-10-05T12:31:02.408Z,1.83
2022-10-05T12:33:14.469Z,2.20
2022-10-05T12:35:43.926Z,2.10
2022-10-05T12:37:56.629Z,1.77
2022-10-05T12:40:13.890Z,1.90
2022-10-05T12:42:27.717Z,2.00
2022-10-05T12:44:49.331Z,2.20
2022-10-05T12:47:03.619Z,1.90
2022-10-05T12:49:24.582Z,1.80
2022-10-05T12:51:37.968Z,1.70
2022-10-05T12:53:51.187Z,1.73
2022-10-05T12:56:03.668Z,1.80
2022-10-05T12:58:20.200Z,1.90
2022-10-05T13:00:30.446Z,1.67
2022-10-05T13:02:42.463Z,1.63
2022-10-05T13:04:53.990Z,1.70
2022-10-05T13:07:20.444Z,1.67
2022-10-05T13:09:35.235Z,1.70
2022-10-05T13:11:49.805Z,1.47
2022-10-05T13:14:03.789Z,1.97
2022-10-05T13:16:18.565Z,1.70
2022-10-05T13:18:31.652Z,1.80
2022-10-05T13:20:44.071Z,1.80
2022-10-05T13:22:57.464Z,1.77
2022-10-05T13:25:11.525Z,2.00
2022-10-05T13:27:24.276Z,1.73
2022-10-05T13:29:34.510Z,1.70
2022-10-05T13:31:45.533Z,2.47
2022-10-05T13:34:03.605Z,1.97
2022-10-05T13:36:16.433Z,2.47
2022-10-05T13:38:34.270Z,2.40
2022-10-05T13:40:48.469Z,2.80
2022-10-05T13:43:03.035Z,1.80
2022-10-05T13:45:15.488Z,1.93
2022-10-05T13:47:30.840Z,2.10
2022-10-05T13:49:43.755Z,2.13
2022-10-05T13:51:56.427Z,2.20
2022-10-05T13:54:07.617Z,2.50
2022-10-05T13:56:19.510Z,2.53
2022-10-05T13:58:34.855Z,2.30
2022-10-05T14:00:48.520Z,2.30
2022-10-05T14:02:58.606Z,2.60
2022-10-05T14:05:17.568Z,2.80
2022-10-05T14:07:31.820Z,2.47
2022-10-05T14:09:50.459Z,2.43
2022-10-05T14:12:14.194Z,2.60
2022-10-05T14:14:28.825Z,2.67
2022-10-05T14:16:46.851Z,2.50
2022-10-05T14:18:57.509Z,2.60
2022-10-05T14:21:17.905Z,2.63
2022-10-05T14:23:27.801Z,2.67
2022-10-05T14:25:50.439Z,3.23
2022-10-05T14:28:06.842Z,3.00
2022-10-05T14:30:24.550Z,2.90
2022-10-05T14:32:34.556Z,2.90
2022-10-05T14:34:45.313Z,3.30
2022-10-05T14:36:57.694Z,3.30
2022-10-05T14:39:06.624Z,3.20
2022-10-05T14:41:18.929Z,3.10
2022-10-05T14:43:27.920Z,3.40
2022-10-05T14:45:37.995Z,3.40
2022-10-05T14:47:49.560Z,3.20
2022-10-05T14:50:14.218Z,3.03
2022-10-05T14:52:32.634Z,2.80
2022-10-05T14:54:49.297Z,2.90
2022-10-05T14:57:06.522Z,3.20
2022-10-05T14:59:23.286Z,2.97
2022-10-05T15:01:35.582Z,2.83
2022-10-05T15:03:48.204Z,2.93
2022-10-05T15:05:59.294Z,2.80
2022-10-05T15:08:18.230Z,3.07
2022-10-05T15:10:31.603Z,3.10
2022-10-05T15:12:42.926Z,3.20
2022-10-05T15:15:03.178Z,2.80
2022-10-05T15:17:18.395Z,2.90
2022-10-05T15:19:31.689Z,2.70
2022-10-05T15:21:48.436Z,2.67
2022-10-05T15:23:59.406Z,2.50
2022-10-05T15:26:18.786Z,2.67
2022-10-05T15:28:36.119Z,2.90
2022-10-05T15:30:49.597Z,2.77
2022-10-05T15:33:19.721Z,2.60
2022-10-05T15:35:36.914Z,2.70
2022-10-05T15:37:47.774Z,2.70
2022-10-05T15:39:57.855Z,2.33
2022-10-05T15:42:09.272Z,2.60
2022-10-05T15:44:24.287Z,2.87
2022-10-05T15:46:35.530Z,2.87
2022-10-05T15:48:48.572Z,2.33
2022-10-05T15:51:02.791Z,2.77
2022-10-05T15:53:18.316Z,2.60
2022-10-05T15:55:36.646Z,2.60
2022-10-05T15:57:48.382Z,2.60
2022-10-05T16:00:04.338Z,3.07
2022-10-05T16:02:17.758Z,2.43
2022-10-05T16:04:30.671Z,2.93
2022-10-05T16:07:02.104Z,2.80
2022-10-05T16:09:18.114Z,2.93
2022-10-05T16:11:32.696Z,2.40
2022-10-05T16:13:46.535Z,2.50
2022-10-05T16:15:58.259Z,3.00
2022-10-05T16:18:23.112Z,2.80
2022-10-05T16:20:41.163Z,2.40
2022-10-05T16:22:59.798Z,2.50
2022-10-05T16:25:13.403Z,2.80
2022-10-05T16:27:24.927Z,3.00
2022-10-05T16:29:37.048Z,2.70
2022-10-05T16:31:56.401Z,3.00
2022-10-05T16:34:10.712Z,3.23
2022-10-05T16:36:23.265Z,2.90
2022-10-05T16:38:38.802Z,2.93
2022-10-05T16:40:52.479Z,3.00
2022-10-05T16:43:06.972Z,3.17
2022-10-05T16:45:22.643Z,2.97
2022-10-05T16:47:36.791Z,3.03
2022-10-05T16:49:48.924Z,3.20
2022-10-05T16:51:59.776Z,3.23
2022-10-05T16:54:18.176Z,3.00
2022-10-05T16:56:29.108Z,3.37
2022-10-05T16:58:44.101Z,3.27
2022-10-05T17:00:58.623Z,3.20
2022-10-05T17:03:13.103Z,3.80
2022-10-05T17:05:31.783Z,3.70
2022-10-05T17:07:47.322Z,3.50
2022-10-05T17:10:15.111Z,3.30
2022-10-05T17:12:31.310Z,3.50
2022-10-05T17:14:42.622Z,3.20
2022-10-05T17:16:57.308Z,2.90
2022-10-05T17:19:23.717Z,3.30
2022-10-05T17:21:36.233Z,3.63
2022-10-05T17:23:54.214Z,3.00
2022-10-05T17:26:10.956Z,3.10
2022-10-05T17:28:24.798Z,2.87
2022-10-05T17:30:51.853Z,2.93
2022-10-05T17:33:04.926Z,3.00
2022-10-05T17:35:20.627Z,3.30
2022-10-05T17:37:37.469Z,2.83
2022-10-05T17:39:49.262Z,3.10
2022-10-05T17:42:19.612Z,3.07
2022-10-05T17:44:28.496Z,3.20
2022-10-05T17:46:45.729Z,3.37
2022-10-05T17:49:09.445Z,3.23
2022-10-05T17:51:37.248Z,3.10
2022-10-05T17:54:06.795Z,2.90
2022-10-05T17:56:15.623Z,3.40
2022-10-05T17:58:43.360Z,2.80
2022-10-05T18:01:13.057Z,3.10
2022-10-05T18:03:39.154Z,3.10
2022-10-05T18:05:48.083Z,3.00
2022-10-05T18:08:16.702Z,2.80
2022-10-05T18:10:29.035Z,2.80
2022-10-05T18:12:46.828Z,3.00
2022-10-05T18:15:00.756Z,3.10
2022-10-05T18:17:13.601Z,2.70
2022-10-05T18:19:24.881Z,2.90
2022-10-05T18:21:38.168Z,3.00
2022-10-05T18:23:51.337Z,2.90
2022-10-05T18:26:06.460Z,3.20
2022-10-05T18:28:20.508Z,2.73
2022-10-05T18:30:32.738Z,2.70
2022-10-05T18:32:49.514Z,2.90
2022-10-05T18:35:02.563Z,2.97
2022-10-05T18:37:18.636Z,2.57
2022-10-05T18:39:38.784Z,2.93
2022-10-05T18:41:54.526Z,3.00
2022-10-05T18:44:09.430Z,2.83
2022-10-05T18:46:24.946Z,2.90
2022-10-05T18:48:39.545Z,2.70
2022-10-05T18:50:54.634Z,2.90
2022-10-05T18:53:10.456Z,3.20
2022-10-05T18:55:22.999Z,2.27
2022-10-05T18:57:49.994Z,2.83
2022-10-05T19:00:02.627Z,2.87
2022-10-05T19:02:14.939Z,2.40
2022-10-05T19:04:29.712Z,2.37
2022-10-05T19:06:42.496Z,2.50
2022-10-05T19:08:57.255Z,2.57
2022-10-05T19:11:14.004Z,2.60
2022-10-05T19:13:30.177Z,2.40
2022-10-05T19:15:47.092Z,2.50
2022-10-05T19:18:04.600Z,2.40
2022-10-05T19:20:20.631Z,2.30
2022-10-05T19:22:36.840Z,2.47
2022-10-05T19:24:50.700Z,2.20
2022-10-05T19:27:04.381Z,2.07
2022-10-05T19:29:17.799Z,2.43
2022-10-05T19:31:31.219Z,2.20
2022-10-05T19:33:47.336Z,2.10
2022-10-05T19:36:04.051Z,2.20
2022-10-05T19:38:21.649Z,1.87
2022-10-05T19:40:32.495Z,1.77
2022-10-05T19:42:47.448Z,2.20
2022-10-05T19:45:03.186Z,2.00
2022-10-05T19:47:18.776Z,2.00
2022-10-05T19:49:43.154Z,1.80
2022-10-05T19:51:53.576Z,1.77
2022-10-05T19:54:04.820Z,1.67
2022-10-05T19:56:20.506Z,1.73
2022-10-05T19:58:30.183Z,1.70
2022-10-05T20:00:39.182Z,1.50
2022-10-05T20:02:48.119Z,1.87
2022-10-05T20:05:07.395Z,1.93
2022-10-05T20:07:17.083Z,1.90
2022-10-05T20:09:26.942Z,2.00
2022-10-05T20:11:50.149Z,1.90
2022-10-05T20:14:17.082Z,1.80
2022-10-05T20:16:47.541Z,1.77
2022-10-05T20:19:13.757Z,1.90
2022-10-05T20:21:45.340Z,1.90
2022-10-05T20:24:07.501Z,1.80
2022-10-05T20:26:48.160Z,2.10
2022-10-05T20:28:57.944Z,2.00
2022-10-05T20:31:07.895Z,1.70
2022-10-05T20:33:16.474Z,1.87
2022-10-05T20:35:26.311Z,1.73
2022-10-05T20:37:34.971Z,1.80
2022-10-05T20:39:43.415Z,1.63
2022-10-05T20:41:51.831Z,1.70
2022-10-05T20:44:01.677Z,1.60
2022-10-05T20:46:10.102Z,1.70
2022-10-05T20:48:18.727Z,1.63
2022-10-05T20:50:27.604Z,1.90
2022-10-05T20:52:37.159Z,1.90
2022-10-05T20:56:59.724Z,2.23
2022-10-05T20:59:09.597Z,1.70
2022-10-05T21:01:19.033Z,2.00
2022-10-05T21:03:27.877Z,1.80
2022-10-05T21:05:36.414Z,1.90
2022-10-05T21:07:44.825Z,2.10
2022-10-05T21:09:53.880Z,1.87
2022-10-05T21:12:03.214Z,1.80
2022-10-05T21:14:13.776Z,1.90
2022-10-05T21:16:23.071Z,2.00
2022-10-05T21:18:32.182Z,2.00
2022-10-05T21:20:40.644Z,1.70
2022-10-05T21:22:49.160Z,2.10
2022-10-05T21:24:58.508Z,1.87
2022-10-05T21:27:13.509Z,1.80
2022-10-05T21:29:23.479Z,1.90
2022-10-05T21:31:32.406Z,1.87
2022-10-05T21:33:40.966Z,1.87
2022-10-05T21:35:49.879Z,1.97
2022-10-05T21:37:58.385Z,2.00
2022-10-05T21:40:07.327Z,1.80
2022-10-05T21:42:15.826Z,1.80
2022-10-05T21:44:25.909Z,1.70
2022-10-05T21:46:36.915Z,2.23
2022-10-05T21:48:45.953Z,1.60
2022-10-05T21:50:54.453Z,1.60
2022-10-05T21:53:06.019Z,1.73
2022-10-05T21:55:14.670Z,1.57
2022-10-05T21:57:23.272Z,1.53
2022-10-05T21:59:34.856Z,1.70
2022-10-05T22:01:43.393Z,1.90
2022-10-05T22:03:51.817Z,1.70
2022-10-05T22:06:00.335Z,1.60
2022-10-05T22:08:08.798Z,1.70
2022-10-05T22:10:17.347Z,1.80
2022-10-05T22:12:26.503Z,1.80
2022-10-05T22:14:36.475Z,1.70
2022-10-05T22:16:45.911Z,1.90
2022-10-05T22:18:57.483Z,1.97
2022-10-05T22:21:06.352Z,2.00
2022-10-05T22:23:15.824Z,1.83
2022-10-05T22:25:24.607Z,2.23
2022-10-05T22:27:34.257Z,1.90
2022-10-05T22:29:44.618Z,1.50
2022-10-05T22:31:53.248Z,2.10
2022-10-05T22:34:01.805Z,1.80
2022-10-05T22:36:11.420Z,2.00
2022-10-05T22:38:19.908Z,1.90
2022-10-05T22:40:28.661Z,1.80
2022-10-05T22:42:37.638Z,2.00
2022-10-05T22:44:49.634Z,2.10
2022-10-05T22:46:58.056Z,1.97
2022-10-05T22:49:06.860Z,1.90
2022-10-05T22:51:15.363Z,2.10
2022-10-05T22:53:23.887Z,1.87
2022-10-05T22:55:32.463Z,1.93
2022-10-05T22:57:41.371Z,2.00
2022-10-05T22:59:51.286Z,1.90
2022-10-05T23:02:00.135Z,2.17
2022-10-05T23:04:08.958Z,1.80
2022-10-05T23:06:18.385Z,2.03
2022-10-05T23:08:27.513Z,1.80
2022-10-05T23:10:36.244Z,1.93
2022-10-05T23:12:45.397Z,2.03
2022-10-05T23:14:55.269Z,1.93
2022-10-05T23:17:03.808Z,1.83
2022-10-05T23:19:14.392Z,1.97
2022-10-05T23:21:24.058Z,1.97
2022-10-05T23:23:32.495Z,1.90
2022-10-05T23:25:40.957Z,1.80
2022-10-05T23:27:49.616Z,2.10
2022-10-05T23:29:59.455Z,1.90
2022-10-05T23:32:08.029Z,1.87
2022-10-05T23:34:16.472Z,2.20
2022-10-05T23:36:25.791Z,2.10
2022-10-05T23:38:34.574Z,2.27
2022-10-05T23:40:47.497Z,1.70
2022-10-05T23:42:56.205Z,2.20
2022-10-05T23:45:06.458Z,2.00
2022-10-05T23:47:14.873Z,2.20
2022-10-05T23:49:23.382Z,1.90
2022-10-05T23:51:31.895Z,2.00
2022-10-05T23:53:40.566Z,1.80
2022-10-05T23:55:51.180Z,1.70
2022-10-05T23:57:59.580Z,1.90
